Time;durP1;ratioP1;P1;durP2;ratioP2;P2;SDS_P1;SDS_P2;PMS_P1;PMS_P2;Temp;Humidity;BMP_temperature;BMP_pressure;BME280_temperature;BME280_humidity;BME280_pressure;Samples;Min_cycle;Max_cycle;Signal;HPM_P1;HPM_P2
2023/12/13 00:02:57;;;;;;;34.40;14.90;;;5.10;99.90;;;3.05;100.00;99191.53;10447326;27;96542;-82
2023/12/13 00:08:01;;;;;;;31.40;14.27;;;5.10;99.90;;;3.06;100.00;99172.16;10447277;27;96682;-82
2023/12/13 00:13:05;;;;;;;32.10;13.17;;;5.10;99.90;;;3.10;100.00;99177.00;10489349;27;97762;-82
2023/12/13 00:18:08;;;;;;;33.80;13.90;;;5.20;99.90;;;3.11;100.00;99162.91;10478331;27;96547;-82
2023/12/13 00:23:12;;;;;;;33.00;13.77;;;5.20;99.90;;;3.14;100.00;99149.50;10487293;27;96558;-82
2023/12/13 00:28:16;;;;;;;46.50;13.70;;;5.20;99.90;;;3.12;100.00;99134.84;10505081;27;96420;-82
2023/12/13 00:33:19;;;;;;;31.37;15.50;;;5.20;99.90;;;3.15;100.00;99134.56;10462183;27;96530;-82
2023/12/13 00:38:23;;;;;;;35.83;14.50;;;5.20;99.90;;;3.13;100.00;99123.41;10486726;27;96647;-82
2023/12/13 00:43:27;;;;;;;25.60;11.67;;;5.20;99.90;;;3.11;100.00;99128.78;10429886;27;96511;-82
2023/12/13 00:48:30;;;;;;;23.53;12.50;;;5.20;99.90;;;3.11;100.00;99115.66;10483751;27;96468;-82
2023/12/13 00:53:34;;;;;;;30.20;14.50;;;5.20;99.90;;;3.13;100.00;99110.28;10456037;27;96629;-82
2023/12/13 00:58:37;;;;;;;32.10;14.50;;;5.20;99.90;;;3.11;100.00;99109.56;10445140;27;96411;-82
2023/12/13 01:03:41;;;;;;;23.30;10.87;;;5.20;99.90;;;3.14;100.00;99109.28;10461182;27;96672;-82
2023/12/13 01:08:44;;;;;;;30.63;14.77;;;5.20;99.90;;;3.11;100.00;99112.19;10461769;27;97373;-81
2023/12/13 01:13:48;;;;;;;26.73;12.87;;;5.20;99.90;;;3.07;100.00;99105.59;10465773;27;96452;-82
2023/12/13 01:18:52;;;;;;;25.30;13.20;;;5.10;99.90;;;3.04;100.00;99095.38;10502316;27;96524;-82
2023/12/13 01:23:55;;;;;;;25.73;12.77;;;5.10;99.90;;;3.06;100.00;99083.78;10455956;27;98254;-82
2023/12/13 01:28:59;;;;;;;23.00;11.80;;;5.10;99.90;;;3.02;100.00;99077.16;10473252;27;96491;-82
2023/12/13 01:34:03;;;;;;;21.10;11.70;;;5.10;99.90;;;3.02;100.00;99064.03;10465078;27;98180;-82
2023/12/13 01:39:07;;;;;;;21.57;11.07;;;5.10;99.90;;;3.02;100.00;99055.34;10460529;27;96499;-81
2023/12/13 01:44:11;;;;;;;23.23;9.77;;;5.10;99.90;;;3.05;100.00;99058.50;10485724;27;96582;-81
2023/12/13 01:49:15;;;;;;;22.03;9.87;;;5.10;99.90;;;3.01;100.00;99035.34;10475592;27;97881;-82
2023/12/13 01:54:19;;;;;;;24.40;10.37;;;5.10;99.90;;;3.04;100.00;99027.16;10459923;27;96524;-81
2023/12/13 01:59:23;;;;;;;23.10;11.33;;;5.10;99.90;;;3.04;100.00;99022.72;10441855;27;96592;-82
2023/12/13 02:04:28;;;;;;;18.70;9.27;;;5.10;99.90;;;3.04;100.00;99011.41;10450606;27;96618;-81
2023/12/13 02:09:31;;;;;;;18.90;9.77;;;5.10;99.90;;;3.06;100.00;99004.19;10440871;27;96594;-81
2023/12/13 02:14:35;;;;;;;22.40;9.93;;;5.10;99.90;;;3.05;100.00;98986.78;10470464;27;96520;-82
2023/12/13 02:19:38;;;;;;;20.27;9.93;;;5.10;99.90;;;3.04;100.00;98987.78;10459862;27;96439;-81
2023/12/13 02:24:45;;;;;;;14.63;8.70;;;5.10;99.90;;;3.05;100.00;98977.13;10458547;27;96596;-82
2023/12/13 02:29:49;;;;;;;18.80;9.80;;;5.10;99.90;;;3.00;100.00;98974.16;10478283;27;96428;-82
2023/12/13 02:34:54;;;;;;;17.80;8.93;;;5.10;99.90;;;3.00;100.00;98978.53;10465721;27;96585;-82
2023/12/13 02:39:58;;;;;;;15.83;9.07;;;5.00;99.90;;;2.97;100.00;98970.97;10484674;27;96616;-82
2023/12/13 02:45:01;;;;;;;16.27;7.73;;;5.00;99.90;;;3.00;100.00;98957.53;10466191;27;96553;-82
2023/12/13 02:50:06;;;;;;;13.77;7.00;;;5.00;99.90;;;2.99;100.00;98938.34;10464415;27;97364;-82
2023/12/13 02:55:10;;;;;;;16.43;6.93;;;5.00;99.90;;;3.02;100.00;98934.63;10452715;27;97662;-82
2023/12/13 03:00:14;;;;;;;15.93;7.07;;;5.10;99.90;;;3.06;100.00;98918.44;10464808;27;96861;-82
2023/12/13 03:05:17;;;;;;;16.13;7.40;;;5.10;99.90;;;3.03;100.00;98928.41;10460271;27;96398;-82
2023/12/13 03:10:21;;;;;;;16.27;7.77;;;5.10;99.90;;;3.04;100.00;98935.28;10484159;27;96518;-82
2023/12/13 03:15:25;;;;;;;14.87;7.10;;;5.10;99.90;;;3.00;100.00;98931.31;10458759;27;97189;-82
2023/12/13 03:20:30;;;;;;;13.53;7.50;;;5.00;99.90;;;2.99;100.00;98922.59;10434291;27;96417;-82
2023/12/13 03:25:33;;;;;;;12.83;6.73;;;5.00;99.90;;;2.95;100.00;98903.72;10455488;27;98104;-82
2023/12/13 03:30:37;;;;;;;16.23;7.90;;;5.00;99.90;;;3.01;100.00;98912.81;10463886;27;96538;-82
2023/12/13 03:35:41;;;;;;;19.00;7.50;;;5.00;99.90;;;2.96;100.00;98894.06;10468163;27;98060;-82
2023/12/13 03:40:44;;;;;;;18.33;7.40;;;5.00;99.90;;;3.00;100.00;98908.53;10472366;27;96563;-82
2023/12/13 03:45:48;;;;;;;15.77;6.53;;;5.00;99.90;;;2.99;100.00;98883.25;10477875;27;96465;-82
2023/12/13 03:50:52;;;;;;;21.13;6.87;;;5.00;99.90;;;3.03;100.00;98883.78;10442979;27;96631;-82
2023/12/13 03:55:59;;;;;;;19.57;7.23;;;5.00;99.90;;;3.02;100.00;98866.38;10467885;27;96555;-82
2023/12/13 04:01:04;;;;;;;19.60;7.73;;;5.10;99.90;;;3.04;100.00;98864.44;10470367;27;96565;-82
2023/12/13 04:06:07;;;;;;;14.73;6.30;;;5.10;99.90;;;3.04;100.00;98872.31;10483858;27;96478;-82
2023/12/13 04:11:11;;;;;;;13.93;6.73;;;5.10;99.90;;;3.07;100.00;98869.38;10473537;27;96711;-81
2023/12/13 04:16:14;;;;;;;15.10;5.80;;;5.10;99.90;;;3.07;100.00;98870.22;10491753;27;97959;-82
2023/12/13 04:21:18;;;;;;;11.67;6.00;;;5.10;99.90;;;3.07;100.00;98867.59;10444099;27;96584;-82
2023/12/13 04:26:21;;;;;;;17.03;6.20;;;5.10;99.90;;;3.08;100.00;98866.59;10493082;27;96828;-81
2023/12/13 04:31:25;;;;;;;16.60;6.63;;;5.10;99.90;;;3.06;100.00;98854.59;10468405;27;96597;-81
2023/12/13 04:36:29;;;;;;;13.60;5.80;;;5.10;99.90;;;3.08;100.00;98850.84;10426644;27;96392;-82
2023/12/13 04:41:32;;;;;;;13.50;6.30;;;5.20;99.90;;;3.10;100.00;98856.75;10478430;27;96402;-82
2023/12/13 04:46:36;;;;;;;12.70;5.23;;;5.10;99.90;;;3.11;100.00;98852.34;10479841;27;97972;-81
2023/12/13 04:51:39;;;;;;;11.53;5.80;;;5.20;99.90;;;3.11;100.00;98832.16;10460650;27;96519;-82
2023/12/13 04:56:43;;;;;;;16.20;6.20;;;5.20;99.90;;;3.12;100.00;98835.59;10469223;27;96535;-82
2023/12/13 05:01:46;;;;;;;12.57;5.87;;;5.10;99.90;;;3.10;100.00;98851.50;10465415;27;96534;-82
2023/12/13 05:06:50;;;;;;;18.97;6.10;;;5.10;99.90;;;3.05;100.00;98829.31;10434476;27;97526;-82
2023/12/13 05:11:53;;;;;;;8.70;4.67;;;5.20;99.90;;;3.09;100.00;98835.94;10468542;27;96729;-82
2023/12/13 05:16:57;;;;;;;10.20;4.97;;;5.20;99.90;;;3.13;100.00;98842.53;10477829;27;96799;-82
2023/12/13 05:22:00;;;;;;;19.83;7.80;;;5.20;99.90;;;3.14;100.00;98846.78;10474953;27;96645;-82
2023/12/13 05:27:04;;;;;;;37.47;15.10;;;5.20;99.90;;;3.11;100.00;98840.03;10444274;27;96571;-82
2023/12/13 05:32:08;;;;;;;15.97;7.63;;;5.20;99.90;;;3.07;100.00;98817.72;10479384;27;96480;-83
2023/12/13 05:37:11;;;;;;;39.67;19.13;;;5.20;99.90;;;3.09;100.00;98830.69;10465919;27;96430;-83
2023/12/13 05:42:15;;;;;;;19.30;8.83;;;5.20;99.90;;;3.04;100.00;98825.06;10452707;27;97644;-83
2023/12/13 05:47:19;;;;;;;23.27;9.53;;;5.10;99.90;;;3.10;100.00;98832.31;10455275;27;96988;-83
2023/12/13 05:52:22;;;;;;;16.27;8.17;;;5.10;99.90;;;3.08;100.00;98823.78;10476950;27;96601;-83
2023/12/13 05:57:26;;;;;;;56.80;17.90;;;5.20;99.90;;;3.05;100.00;98803.09;10443148;27;96520;-83
2023/12/13 06:02:29;;;;;;;34.60;17.13;;;5.10;99.90;;;3.08;100.00;98798.34;10468771;27;97199;-82
2023/12/13 06:07:33;;;;;;;14.90;7.83;;;5.10;99.90;;;3.08;100.00;98808.84;10458520;27;96415;-83
2023/12/13 06:12:37;;;;;;;9.20;5.27;;;5.10;99.90;;;3.06;100.00;98804.72;10455751;27;97974;-83
2023/12/13 06:17:41;;;;;;;10.37;5.60;;;5.10;99.90;;;3.09;100.00;98800.00;10455903;27;96781;-83
2023/12/13 06:22:45;;;;;;;27.20;10.93;;;5.10;99.90;;;3.09;100.00;98794.75;10460687;27;97116;-83
2023/12/13 06:27:49;;;;;;;23.37;9.90;;;5.10;99.90;;;3.09;100.00;98788.69;10460949;27;96823;-83
2023/12/13 06:32:52;;;;;;;17.27;7.60;;;5.10;99.90;;;3.11;100.00;98798.03;10450926;27;96566;-83
2023/12/13 06:37:56;;;;;;;8.50;4.40;;;5.10;99.90;;;3.10;100.00;98803.44;10460084;27;96453;-83
2023/12/13 06:42:59;;;;;;;25.00;8.87;;;5.10;99.90;;;3.08;100.00;98784.41;10463072;27;96555;-83
2023/12/13 06:48:03;;;;;;;7.30;4.17;;;5.10;99.90;;;3.10;100.00;98787.69;10465204;27;96524;-83
2023/12/13 06:53:07;;;;;;;6.40;3.50;;;5.10;99.90;;;3.14;100.00;98787.25;10470868;27;96601;-83
2023/12/13 06:58:10;;;;;;;10.10;5.13;;;5.10;99.90;;;3.15;100.00;98782.81;10465020;27;98019;-83
2023/12/13 07:03:14;;;;;;;8.77;3.90;;;5.20;99.90;;;3.17;100.00;98778.22;10454455;27;96616;-83
2023/12/13 07:08:18;;;;;;;11.83;4.73;;;5.20;99.90;;;3.21;100.00;98792.69;10462797;27;97645;-83
2023/12/13 07:13:22;;;;;;;9.67;4.40;;;5.20;99.90;;;3.25;100.00;98790.59;10450921;27;96881;-83
2023/12/13 07:18:25;;;;;;;12.43;6.07;;;5.30;99.90;;;3.30;100.00;98783.03;10497217;27;96638;-83
2023/12/13 07:23:31;;;;;;;44.77;18.77;;;5.30;99.90;;;3.32;100.00;98781.94;10496538;27;96592;-83
2023/12/13 07:28:35;;;;;;;36.37;14.67;;;5.30;99.90;;;3.36;100.00;98780.66;10504709;27;96525;-83
2023/12/13 07:33:40;;;;;;;31.57;11.63;;;5.40;99.90;;;3.35;100.00;98773.72;10472583;27;96484;-83
2023/12/13 07:38:45;;;;;;;27.97;11.33;;;5.40;99.90;;;3.36;100.00;98762.25;10477072;27;96535;-83
2023/12/13 07:43:49;;;;;;;28.00;11.97;;;5.40;99.90;;;3.36;100.00;98764.91;10468070;27;96494;-83
2023/12/13 07:48:54;;;;;;;16.27;7.60;;;5.40;99.90;;;3.33;100.00;98753.88;10472837;27;96487;-83
2023/12/13 07:54:00;;;;;;;10.07;5.90;;;5.40;99.90;;;3.25;100.00;98749.41;10481382;27;98097;-83
2023/12/13 07:59:05;;;;;;;11.13;6.53;;;5.30;99.90;;;3.21;100.00;98750.69;10455002;27;97231;-83
2023/12/13 08:04:08;;;;;;;10.30;6.37;;;5.30;99.90;;;3.22;100.00;98752.34;10459152;27;97782;-83
2023/12/13 08:09:12;;;;;;;13.20;6.17;;;5.30;99.90;;;3.16;100.00;98742.47;10467749;27;96543;-84
2023/12/13 08:14:16;;;;;;;11.47;6.40;;;5.30;99.90;;;3.13;100.00;98737.53;10464237;27;98122;-83
2023/12/13 08:19:19;;;;;;;10.00;4.67;;;5.20;99.90;;;3.06;100.00;98736.47;10460249;27;97202;-83
2023/12/13 08:24:23;;;;;;;9.80;5.37;;;5.10;99.90;;;3.00;100.00;98730.09;10468436;27;96552;-83
2023/12/13 08:29:26;;;;;;;13.57;7.03;;;5.10;99.90;;;3.05;100.00;98730.41;10441118;27;96531;-83
2023/12/13 08:34:30;;;;;;;16.07;8.03;;;5.10;99.90;;;3.01;100.00;98721.22;10463083;27;97713;-83
2023/12/13 08:39:33;;;;;;;19.47;9.57;;;5.10;99.90;;;3.05;100.00;98719.91;10454803;27;97797;-83
2023/12/13 08:44:37;;;;;;;20.97;9.37;;;5.10;99.90;;;3.11;100.00;98734.22;10461760;27;96521;-83
2023/12/13 08:49:40;;;;;;;18.60;8.00;;;5.20;99.90;;;3.13;100.00;98719.16;10453260;27;98286;-84
2023/12/13 08:54:44;;;;;;;14.47;7.53;;;5.20;99.90;;;3.15;100.00;98722.44;10463683;27;96448;-83
2023/12/13 08:59:48;;;;;;;16.07;8.40;;;5.20;99.90;;;3.13;100.00;98732.28;10458684;27;98290;-83
2023/12/13 09:05:08;;;;;;;13.83;7.80;;;5.30;99.90;;;3.14;100.00;98741.81;10430827;27;96741;-83
2023/12/13 09:10:12;;;;;;;26.93;10.57;;;5.20;99.90;;;3.11;100.00;98724.53;10469904;27;96506;-83
2023/12/13 09:15:19;;;;;;;29.03;11.60;;;5.20;99.90;;;3.09;100.00;98730.94;10468610;27;96544;-83
2023/12/13 09:20:22;;;;;;;19.33;8.70;;;5.20;99.90;;;3.05;100.00;98712.03;10477784;27;98071;-83
2023/12/13 09:25:26;;;;;;;34.10;11.57;;;5.20;99.90;;;3.05;100.00;98711.22;10467525;27;96677;-83
2023/12/13 09:30:30;;;;;;;22.60;9.50;;;5.10;99.90;;;3.00;100.00;98710.88;10436098;27;97336;-83
2023/12/13 09:35:33;;;;;;;16.73;7.53;;;5.10;99.90;;;2.99;100.00;98714.47;10448038;27;96435;-83
2023/12/13 09:40:37;;;;;;;18.87;8.57;;;5.10;99.90;;;2.95;100.00;98712.19;10459625;27;96522;-83
2023/12/13 09:45:42;;;;;;;18.67;7.83;;;5.10;99.90;;;2.95;100.00;98709.56;10463733;27;96580;-83
2023/12/13 09:50:49;;;;;;;20.90;9.30;;;5.10;99.90;;;2.98;100.00;98713.66;10485476;27;96664;-83
2023/12/13 09:55:54;;;;;;;21.90;8.73;;;5.10;99.90;;;2.98;100.00;98713.66;10460972;27;96719;-83
2023/12/13 10:00:58;;;;;;;21.10;8.27;;;5.10;99.90;;;3.01;100.00;98712.53;10463597;27;96521;-83
2023/12/13 10:06:05;;;;;;;24.17;10.97;;;5.10;99.90;;;3.02;100.00;98716.81;10451096;27;96497;-83
2023/12/13 10:11:11;;;;;;;19.27;8.60;;;5.10;99.90;;;3.01;100.00;98702.03;10463704;27;96547;-83
2023/12/13 10:16:15;;;;;;;25.93;8.67;;;5.20;99.90;;;3.10;100.00;98706.34;10452080;27;96598;-82
2023/12/13 10:21:19;;;;;;;22.37;10.13;;;5.10;99.90;;;3.09;100.00;98694.19;10427833;27;96529;-83
2023/12/13 10:26:22;;;;;;;22.00;9.10;;;5.20;99.90;;;3.08;100.00;98682.06;10461848;27;96536;-83
2023/12/13 10:31:26;;;;;;;20.40;9.47;;;5.20;99.90;;;3.11;100.00;98694.84;10447623;27;96564;-82
2023/12/13 10:36:30;;;;;;;20.83;9.40;;;5.20;99.90;;;3.08;100.00;98679.44;10443635;27;97605;-84
2023/12/13 10:41:36;;;;;;;29.27;11.90;;;5.20;99.90;;;3.08;100.00;98692.56;10473920;27;96534;-84
2023/12/13 10:46:46;;;;;;;25.67;10.40;;;5.20;99.90;;;3.10;100.00;98682.72;10440453;27;96796;-84
2023/12/13 10:51:51;;;;;;;21.77;9.53;;;5.20;99.90;;;3.10;100.00;98666.97;10456437;27;97229;-84
2023/12/13 10:56:56;;;;;;;23.43;11.00;;;5.20;99.90;;;3.09;100.00;98658.28;10500385;27;97441;-83
2023/12/13 11:02:02;;;;;;;21.57;10.20;;;5.20;99.90;;;3.08;100.00;98656.63;10461144;27;97764;-84
2023/12/13 11:07:06;;;;;;;25.97;9.43;;;5.20;99.90;;;3.09;100.00;98636.47;10483045;27;96957;-84
2023/12/13 11:12:18;;;;;;;22.57;8.50;;;5.20;99.90;;;3.12;100.00;98629.09;10475203;27;97621;-84
2023/12/13 11:17:22;;;;;;;31.53;10.97;;;5.30;99.90;;;3.14;100.00;98621.06;10460072;27;96420;-84
2023/12/13 11:22:33;;;;;;;22.87;9.70;;;5.30;99.90;;;3.14;100.00;98624.50;10469459;27;97145;-84
2023/12/13 11:27:53;;;;;;;28.80;11.30;;;5.20;99.90;;;3.15;100.00;98614.81;10437071;27;96697;-83
2023/12/13 11:32:57;;;;;;;28.77;9.77;;;5.30;99.90;;;3.17;100.00;98607.59;10455615;27;96518;-83
2023/12/13 11:38:03;;;;;;;30.90;10.83;;;5.30;99.90;;;3.21;100.00;98593.19;10497050;27;96549;-83
2023/12/13 11:43:07;;;;;;;20.47;8.50;;;5.30;99.90;;;3.24;100.00;98582.38;10506267;27;96465;-83
2023/12/13 11:48:10;;;;;;;27.13;9.20;;;5.30;99.90;;;3.20;100.00;98591.53;10439672;27;96648;-83
2023/12/13 11:53:14;;;;;;;26.07;9.60;;;5.40;99.90;;;3.21;100.00;98585.31;10461256;27;96613;-83
2023/12/13 11:58:18;;;;;;;38.70;13.77;;;5.40;99.90;;;3.20;100.00;98578.41;10455911;27;96632;-83
2023/12/13 12:03:21;;;;;;;35.53;12.97;;;5.40;99.90;;;3.26;100.00;98584.84;10451067;27;97051;-83
2023/12/13 12:08:25;;;;;;;34.23;12.77;;;5.30;99.90;;;3.21;100.00;98580.06;10476760;27;97713;-83
2023/12/13 12:13:29;;;;;;;38.20;15.37;;;5.30;99.90;;;3.27;100.00;98591.72;10476512;27;96540;-83
2023/12/13 12:18:32;;;;;;;34.10;12.87;;;5.40;99.90;;;3.25;100.00;98597.16;10423355;27;96785;-83
2023/12/13 12:23:39;;;;;;;41.77;17.10;;;5.40;99.90;;;3.28;100.00;98603.88;10464434;27;96679;-83
2023/12/13 12:28:47;;;;;;;47.00;16.33;;;5.40;99.90;;;3.31;100.00;98611.44;10473585;27;96537;-83
2023/12/13 12:33:58;;;;;;;30.77;12.70;;;5.40;99.90;;;3.31;100.00;98612.25;10460915;27;96477;-85
2023/12/13 12:39:02;;;;;;;29.88;11.35;;;5.40;99.90;;;3.29;100.00;98589.75;10456227;27;96640;-83
2023/12/13 12:44:07;;;;;;;36.00;15.17;;;5.40;99.90;;;3.32;100.00;98599.94;10468161;27;96927;-85
2023/12/13 12:49:11;;;;;;;41.07;15.67;;;5.40;99.90;;;3.34;100.00;98618.97;10451501;27;96462;-85
2023/12/13 12:54:18;;;;;;;44.97;16.17;;;5.40;99.90;;;3.34;100.00;98603.22;10429212;27;96568;-84
2023/12/13 12:59:21;;;;;;;49.10;20.13;;;5.40;99.90;;;3.34;100.00;98604.03;10445819;27;96517;-85
2023/12/13 13:04:26;;;;;;;48.37;18.77;;;5.50;99.90;;;3.36;100.00;98596.84;10450468;27;96565;-84
2023/12/13 13:09:29;;;;;;;44.37;16.17;;;5.40;99.90;;;3.29;100.00;98579.25;10441264;27;97671;-83
2023/12/13 13:14:33;;;;;;;39.90;14.37;;;5.40;99.90;;;3.32;100.00;98585.00;10457364;27;98069;-83
2023/12/13 13:19:36;;;;;;;53.73;19.43;;;5.40;99.90;;;3.30;100.00;98571.25;10447220;27;96618;-83
2023/12/13 13:24:40;;;;;;;42.73;16.97;;;5.40;99.90;;;3.23;100.00;98563.16;10479006;27;98088;-83
2023/12/13 13:29:43;;;;;;;41.07;17.23;;;5.40;99.90;;;3.32;100.00;98587.63;10450873;27;96757;-83
2023/12/13 13:34:47;;;;;;;50.30;16.87;;;5.40;99.90;;;3.30;100.00;98579.09;10458203;27;96574;-83
2023/12/13 13:39:51;;;;;;;47.00;18.77;;;5.40;99.90;;;3.24;100.00;98561.38;10458267;27;97088;-83
2023/12/13 13:44:54;;;;;;;54.47;21.23;;;5.40;99.90;;;3.27;100.00;98558.41;10462130;27;97030;-83
2023/12/13 13:49:58;;;;;;;43.50;17.10;;;5.40;99.90;;;3.28;100.00;98560.06;10454425;27;97890;-83
2023/12/13 13:55:02;;;;;;;48.77;19.87;;;5.40;99.90;;;3.25;100.00;98567.44;10490063;27;96675;-84
2023/12/13 14:00:10;;;;;;;34.33;13.80;;;5.40;99.90;;;3.31;100.00;98565.00;10485747;27;96572;-83
2023/12/13 14:05:14;;;;;;;37.50;11.43;;;5.40;99.90;;;3.31;100.00;98578.13;10460976;27;97099;-83
2023/12/13 14:10:18;;;;;;;41.47;14.93;;;5.40;99.90;;;3.27;100.00;98576.78;10474414;27;96669;-83
2023/12/13 14:15:21;;;;;;;36.53;13.13;;;5.30;99.90;;;3.20;100.00;98574.00;10454414;27;96572;-83
2023/12/13 14:20:25;;;;;;;71.10;22.10;;;5.30;99.90;;;3.22;100.00;98589.56;10459543;27;97104;-85
2023/12/13 14:25:29;;;;;;;45.10;15.70;;;5.30;99.90;;;3.24;100.00;98600.75;10456526;27;96900;-84
2023/12/13 14:30:33;;;;;;;52.20;18.53;;;5.30;99.90;;;3.22;100.00;98598.28;10458430;27;96568;-83
2023/12/13 14:35:36;;;;;;;47.90;15.23;;;5.30;99.90;;;3.15;100.00;98592.03;10421571;27;98063;-83
2023/12/13 14:40:39;;;;;;;51.77;17.03;;;5.30;99.90;;;3.15;100.00;98594.66;10448678;27;96605;-83
2023/12/13 14:45:43;;;;;;;71.27;19.10;;;5.30;99.90;;;3.13;100.00;98601.88;10476479;27;96462;-83
2023/12/13 14:50:47;;;;;;;66.73;18.57;;;5.20;99.90;;;3.15;100.00;98605.16;10457777;27;96606;-83
2023/12/13 14:55:51;;;;;;;79.23;20.93;;;5.20;99.90;;;3.17;100.00;98602.34;10450902;27;96726;-83
2023/12/13 15:00:55;;;;;;;78.77;22.07;;;5.20;99.90;;;3.15;100.00;98594.66;10448812;27;96578;-83
2023/12/13 15:06:00;;;;;;;75.83;21.83;;;5.20;99.90;;;3.19;100.00;98574.97;10431234;27;96562;-83
2023/12/13 15:11:06;;;;;;;80.17;21.40;;;5.20;99.90;;;3.18;100.00;98578.59;10438593;27;97016;-83
2023/12/13 15:16:10;;;;;;;89.23;19.43;;;5.20;99.90;;;3.17;100.00;98562.97;10463539;27;97408;-84
2023/12/13 15:21:14;;;;;;;87.27;24.87;;;5.30;99.90;;;3.18;100.00;98586.47;10483796;27;96496;-83
2023/12/13 15:26:17;;;;;;;82.70;25.30;;;5.20;99.90;;;3.20;100.00;98575.78;10481229;27;96502;-83
2023/12/13 15:31:21;;;;;;;102.93;26.53;;;5.30;99.90;;;3.18;100.00;98575.16;10443894;27;96890;-84
2023/12/13 15:36:25;;;;;;;90.00;24.73;;;5.20;99.90;;;3.15;100.00;98567.56;10464111;27;96540;-83
2023/12/13 15:41:28;;;;;;;133.80;31.40;;;5.20;99.90;;;3.11;100.00;98559.19;10450038;27;96579;-84
2023/12/13 15:46:33;;;;;;;104.80;25.57;;;5.20;99.90;;;3.09;100.00;98557.72;10463428;27;96483;-83
2023/12/13 15:51:37;;;;;;;102.23;22.13;;;5.20;99.90;;;2.98;100.00;98548.34;10483925;27;96588;-83
2023/12/13 15:56:42;;;;;;;96.97;29.27;;;5.10;99.90;;;2.92;100.00;98541.91;10476584;27;96686;-83
2023/12/13 16:01:45;;;;;;;105.73;28.80;;;5.10;99.90;;;2.93;100.00;98574.22;10445883;27;97569;-83
2023/12/13 16:06:49;;;;;;;59.77;21.67;;;5.00;99.90;;;2.88;100.00;98579.97;10479326;27;96621;-83
2023/12/13 16:11:52;;;;;;;50.63;18.47;;;4.90;99.90;;;2.83;100.00;98574.38;10461491;27;97765;-83
2023/12/13 16:16:56;;;;;;;45.23;17.23;;;4.90;99.90;;;2.87;100.00;98585.34;10420168;28;96808;-84
2023/12/13 16:21:59;;;;;;;43.23;17.80;;;4.90;99.90;;;2.87;100.00;98580.94;10424350;27;96512;-83
2023/12/13 16:27:03;;;;;;;80.20;26.20;;;4.90;99.90;;;2.92;100.00;98578.66;10461884;27;96593;-83
2023/12/13 16:32:07;;;;;;;51.27;18.90;;;5.00;99.90;;;2.97;100.00;98574.75;10461662;27;96567;-83
2023/12/13 16:37:10;;;;;;;60.13;20.93;;;5.00;99.90;;;2.97;100.00;98556.38;10465338;27;96529;-83
2023/12/13 16:42:18;;;;;;;72.53;24.60;;;5.10;99.90;;;2.99;100.00;98557.03;10500209;27;96591;-83
2023/12/13 16:47:22;;;;;;;64.60;23.00;;;5.10;99.90;;;2.90;100.00;98540.44;10504593;27;96581;-83
2023/12/13 16:52:26;;;;;;;100.17;26.40;;;5.10;99.90;;;2.99;100.00;98541.28;10465393;27;96574;-83
2023/12/13 16:57:29;;;;;;;74.37;21.60;;;5.10;99.90;;;2.97;100.00;98530.94;10460261;27;96512;-83
2023/12/13 17:02:33;;;;;;;68.60;22.23;;;5.10;99.90;;;3.02;100.00;98533.94;10464149;27;96579;-83
2023/12/13 17:07:47;;;;;;;99.20;34.10;;;5.10;99.90;;;3.08;100.00;98545.59;10476295;27;96817;-84
2023/12/13 17:12:51;;;;;;;112.60;41.20;;;5.20;99.90;;;3.10;100.00;98552.31;10435481;27;96456;-83
2023/12/13 17:17:55;;;;;;;80.70;26.40;;;5.20;99.90;;;3.08;100.00;98540.34;10463254;27;96549;-83
2023/12/13 17:22:58;;;;;;;71.17;21.37;;;5.20;99.90;;;3.09;100.00;98536.72;10481069;27;97607;-83
2023/12/13 17:28:02;;;;;;;55.37;16.67;;;5.20;99.90;;;3.04;100.00;98539.00;10459921;27;96804;-84
2023/12/13 17:33:06;;;;;;;61.40;18.83;;;5.10;99.90;;;3.07;100.00;98549.19;10460576;27;96522;-83
2023/12/13 17:38:10;;;;;;;88.63;22.07;;;5.10;99.90;;;3.04;100.00;98550.31;10423462;27;96718;-84
2023/12/13 17:43:13;;;;;;;76.60;20.20;;;5.10;99.90;;;3.01;100.00;98545.41;10416113;27;96491;-84
2023/12/13 17:48:17;;;;;;;81.37;20.53;;;5.10;99.90;;;2.99;100.00;98542.09;10405769;27;96794;-84
2023/12/13 17:53:21;;;;;;;70.23;19.50;;;5.10;99.90;;;3.03;100.00;98543.44;10407175;27;96605;-84
2023/12/13 17:58:25;;;;;;;72.83;18.10;;;5.10;99.90;;;3.02;100.00;98556.72;10438105;27;96600;-84
2023/12/13 18:03:28;;;;;;;63.93;16.30;;;5.10;99.90;;;2.95;100.00;98556.53;10416228;28;96783;-84
2023/12/13 18:08:32;;;;;;;83.17;18.33;;;5.00;99.90;;;2.92;100.00;98565.53;10417550;27;98651;-84
2023/12/13 18:13:37;;;;;;;90.07;20.27;;;5.00;99.90;;;2.93;100.00;98546.19;10426671;27;96744;-83
2023/12/13 18:18:41;;;;;;;83.37;20.80;;;5.00;99.90;;;2.97;100.00;98538.81;10460150;27;96486;-83
2023/12/13 18:23:45;;;;;;;95.67;22.43;;;5.00;99.90;;;3.00;100.00;98516.69;10401411;28;97638;-83
2023/12/13 18:28:48;;;;;;;83.40;21.90;;;5.10;99.90;;;3.03;100.00;98530.31;10423639;27;96609;-82
2023/12/13 18:33:52;;;;;;;49.73;16.40;;;5.10;99.90;;;3.02;100.00;98525.22;10424307;27;97903;-82
2023/12/13 18:38:56;;;;;;;50.80;15.47;;;5.10;99.90;;;3.03;100.00;98535.56;10428896;27;96514;-84
2023/12/13 18:44:00;;;;;;;64.27;18.60;;;5.10;99.90;;;3.06;100.00;98534.41;10464933;27;96547;-83
2023/12/13 18:49:04;;;;;;;40.63;12.50;;;5.10;99.90;;;3.07;100.00;98522.94;10473531;27;96577;-84
2023/12/13 18:54:07;;;;;;;91.20;23.00;;;5.10;99.90;;;3.04;100.00;98525.88;10454252;27;96508;-84
2023/12/13 18:59:11;;;;;;;88.43;21.90;;;5.10;99.90;;;3.03;100.00;98542.63;10424615;27;96456;-83
2023/12/13 19:04:14;;;;;;;118.33;27.90;;;5.10;99.90;;;3.03;100.00;98546.06;10420973;27;96657;-83
2023/12/13 19:09:18;;;;;;;109.67;26.77;;;5.10;99.90;;;3.02;100.00;98556.72;10419370;27;96569;-84
2023/12/13 19:14:22;;;;;;;125.30;29.57;;;5.10;99.90;;;2.90;100.00;98548.31;10421615;27;96543;-84
2023/12/13 19:19:25;;;;;;;135.17;28.93;;;5.10;99.90;;;3.01;100.00;98568.22;10423497;27;97322;-83
2023/12/13 19:24:29;;;;;;;154.17;31.20;;;5.00;99.90;;;2.99;100.00;98575.41;10451329;27;96648;-83
2023/12/13 19:29:33;;;;;;;117.37;25.80;;;5.10;99.90;;;2.99;100.00;98593.75;10413518;28;96545;-83
2023/12/13 19:34:36;;;;;;;112.23;24.23;;;5.10;99.90;;;3.00;100.00;98604.13;10464724;27;96557;-84
2023/12/13 19:39:40;;;;;;;112.07;20.60;;;5.10;99.90;;;3.02;100.00;98610.03;10460494;27;97632;-84
2023/12/13 19:44:43;;;;;;;135.80;25.30;;;5.10;99.90;;;3.02;100.00;98617.09;10464309;27;96591;-83
2023/12/13 19:49:47;;;;;;;103.03;22.27;;;5.10;99.90;;;3.05;100.00;98629.88;10482578;27;96580;-83
2023/12/13 19:54:53;;;;;;;91.03;20.63;;;5.10;99.90;;;3.03;100.00;98630.03;10458085;27;96515;-84
2023/12/13 19:59:57;;;;;;;107.53;21.70;;;5.10;99.90;;;3.04;100.00;98622.97;10460829;27;96525;-84
2023/12/13 20:05:01;;;;;;;104.97;20.80;;;5.10;99.90;;;3.01;100.00;98628.56;10465236;27;97456;-83
2023/12/13 20:10:05;;;;;;;63.93;17.13;;;5.00;99.90;;;2.99;100.00;98626.06;10453997;27;99065;-83
2023/12/13 20:15:11;;;;;;;74.43;17.60;;;5.00;99.90;;;2.98;100.00;98624.44;10477997;27;96640;-83
2023/12/13 20:20:15;;;;;;;63.20;17.33;;;5.00;99.90;;;3.00;100.00;98629.50;10472385;27;97778;-83
2023/12/13 20:25:19;;;;;;;65.43;14.87;;;5.10;99.90;;;2.99;100.00;98636.56;10505026;27;96608;-83
2023/12/13 20:30:24;;;;;;;63.90;17.27;;;5.10;99.90;;;3.01;100.00;98623.31;10491212;27;96718;-83
2023/12/13 20:35:28;;;;;;;63.63;18.83;;;5.10;99.90;;;2.95;100.00;98630.84;10460860;27;96606;-83
2023/12/13 20:40:31;;;;;;;71.57;18.30;;;5.10;99.90;;;2.85;100.00;98624.88;10460395;27;96465;-83
2023/12/13 20:45:35;;;;;;;95.00;19.70;;;5.00;99.90;;;2.86;100.00;98628.31;10470802;27;96795;-83
2023/12/13 20:50:38;;;;;;;72.67;18.03;;;4.90;99.90;;;2.85;100.00;98638.00;10471432;27;96747;-83
2023/12/13 20:55:42;;;;;;;66.17;18.70;;;4.90;99.90;;;2.86;100.00;98625.69;10485355;27;96562;-84